createdAt,value
2018-09-15T00:01:35.831Z,49.20
2018-09-15T00:04:04.291Z,49.10
2018-09-15T00:06:32.703Z,49.00
2018-09-15T00:09:01.283Z,49.00
2018-09-15T00:11:29.994Z,49.00
2018-09-15T00:13:58.381Z,49.00
2018-09-15T00:16:27.497Z,48.90
2018-09-15T00:18:56.444Z,49.10
2018-09-15T00:21:25.890Z,49.10
2018-09-15T00:23:55.473Z,49.10
2018-09-15T00:26:23.889Z,49.00
2018-09-15T00:28:53.051Z,49.00
2018-09-15T00:31:28.834Z,48.90
2018-09-15T00:33:59.857Z,48.80
2018-09-15T00:36:28.378Z,48.60
2018-09-15T00:38:57.737Z,48.40
2018-09-15T00:41:26.850Z,48.30
2018-09-15T00:43:56.220Z,48.20
2018-09-15T00:46:29.159Z,48.20
2018-09-15T00:48:59.138Z,48.40
2018-09-15T00:51:27.683Z,48.30
2018-09-15T00:54:40.981Z,48.50
2018-09-15T00:57:09.454Z,48.80
2018-09-15T00:59:39.798Z,48.90
2018-09-15T01:02:10.059Z,49.20
2018-09-15T01:04:39.247Z,49.40
2018-09-15T01:07:08.205Z,49.60
2018-09-15T01:09:36.657Z,49.60
2018-09-15T01:12:05.079Z,49.60
2018-09-15T01:14:33.890Z,49.60
2018-09-15T01:17:03.288Z,49.70
2018-09-15T01:19:32.158Z,50.30
2018-09-15T01:22:01.679Z,50.50
2018-09-15T01:24:30.654Z,51.00
2018-09-15T01:26:59.799Z,51.30
2018-09-15T01:29:28.470Z,51.50
2018-09-15T01:31:59.244Z,51.60
2018-09-15T01:34:27.509Z,52.00
2018-09-15T01:36:56.186Z,52.10
2018-09-15T01:39:24.858Z,52.10
2018-09-15T01:41:53.213Z,52.20
2018-09-15T01:44:21.625Z,52.10
2018-09-15T01:46:50.903Z,52.10
2018-09-15T01:49:19.622Z,52.00
2018-09-15T01:51:48.039Z,51.90
2018-09-15T01:54:18.486Z,51.80
2018-09-15T01:56:47.077Z,51.80
2018-09-15T01:59:16.919Z,51.90
2018-09-15T02:01:45.535Z,51.90
2018-09-15T02:04:14.432Z,52.00
2018-09-15T02:06:43.794Z,52.10
2018-09-15T02:09:14.054Z,52.20
2018-09-15T02:11:43.159Z,52.20
2018-09-15T02:14:12.994Z,52.30
2018-09-15T02:16:41.371Z,52.50
2018-09-15T02:19:09.763Z,52.50
2018-09-15T02:21:38.760Z,52.60
2018-09-15T02:24:07.229Z,52.90
2018-09-15T02:26:35.843Z,53.20
2018-09-15T02:29:04.645Z,53.50
2018-09-15T02:31:33.254Z,53.70
2018-09-15T02:34:02.379Z,54.00
2018-09-15T02:36:30.858Z,54.20
2018-09-15T02:38:59.347Z,54.40
2018-09-15T02:41:27.939Z,54.40
2018-09-15T02:43:57.562Z,54.50
2018-09-15T02:46:26.793Z,54.60
2018-09-15T02:48:55.240Z,54.80
2018-09-15T02:51:24.168Z,55.00
2018-09-15T02:53:52.482Z,55.10
2018-09-15T02:56:20.844Z,55.30
2018-09-15T02:58:50.060Z,55.50
2018-09-15T03:01:18.673Z,55.60
2018-09-15T03:03:47.195Z,55.60
2018-09-15T03:06:16.311Z,55.60
2018-09-15T03:08:44.840Z,55.60
2018-09-15T03:11:13.664Z,55.40
2018-09-15T03:13:42.864Z,55.40
2018-09-15T03:16:11.228Z,55.20
2018-09-15T03:18:41.227Z,55.20
2018-09-15T03:21:09.955Z,55.10
2018-09-15T03:23:39.328Z,55.20
2018-09-15T03:26:09.479Z,55.10
2018-09-15T03:28:38.302Z,55.10
2018-09-15T03:31:06.702Z,55.00
2018-09-15T03:33:35.172Z,55.10
2018-09-15T03:36:03.783Z,55.30
2018-09-15T03:38:32.277Z,55.30
2018-09-15T03:41:02.650Z,55.40
2018-09-15T03:43:32.309Z,55.60
2018-09-15T03:46:00.768Z,55.60
2018-09-15T03:48:29.221Z,55.60
2018-09-15T03:50:57.746Z,55.60
2018-09-15T03:53:27.730Z,55.60
2018-09-15T03:55:56.219Z,55.60
2018-09-15T03:58:24.963Z,55.70
2018-09-15T04:00:54.214Z,56.30
2018-09-15T04:03:23.029Z,57.70
2018-09-15T04:05:51.668Z,59.30
2018-09-15T04:08:20.776Z,60.40
2018-09-15T04:10:49.383Z,61.10
2018-09-15T04:13:18.146Z,61.40
2018-09-15T04:15:46.644Z,61.90
2018-09-15T04:18:16.275Z,62.60
2018-09-15T04:20:46.508Z,63.30
2018-09-15T04:23:15.573Z,63.80
2018-09-15T04:25:45.142Z,64.30
2018-09-15T04:28:13.685Z,65.20
2018-09-15T04:30:42.512Z,64.80
2018-09-15T04:33:11.678Z,65.00
2018-09-15T04:35:41.234Z,65.00
2018-09-15T04:38:09.987Z,65.20
2018-09-15T04:40:39.018Z,65.40
2018-09-15T04:43:07.963Z,66.10
2018-09-15T04:45:37.576Z,65.50
2018-09-15T04:48:06.103Z,65.70
2018-09-15T04:50:35.688Z,65.60
2018-09-15T04:53:17.076Z,65.80
2018-09-15T04:55:46.155Z,65.70
2018-09-15T04:58:15.310Z,65.50
2018-09-15T05:00:43.954Z,65.50
2018-09-15T05:04:01.627Z,65.40
2018-09-15T05:06:30.641Z,65.40
2018-09-15T05:08:59.710Z,65.10
2018-09-15T05:11:29.072Z,64.80
2018-09-15T05:13:57.952Z,64.70
2018-09-15T05:16:28.055Z,64.60
2018-09-15T05:18:56.555Z,64.60
2018-09-15T05:21:24.863Z,64.40
2018-09-15T05:23:53.922Z,64.30
2018-09-15T05:26:22.487Z,64.10
2018-09-15T05:28:50.939Z,64.10
2018-09-15T05:31:19.863Z,63.80
2018-09-15T05:34:18.712Z,63.60
2018-09-15T05:36:48.909Z,63.30
2018-09-15T05:39:17.341Z,63.10
2018-09-15T05:41:46.330Z,63.00
2018-09-15T05:44:17.036Z,62.90
2018-09-15T05:46:45.905Z,62.80
2018-09-15T05:49:16.831Z,62.90
2018-09-15T05:51:45.515Z,63.00
2018-09-15T05:54:14.407Z,62.90
2018-09-15T05:56:43.107Z,62.80
2018-09-15T05:59:11.433Z,62.60
2018-09-15T06:01:39.912Z,61.90
2018-09-15T06:04:08.693Z,61.50
2018-09-15T06:06:37.933Z,61.40
2018-09-15T06:09:08.410Z,61.50
2018-09-15T06:11:37.058Z,61.30
2018-09-15T06:14:15.899Z,60.90
2018-09-15T06:16:44.605Z,60.80
2018-09-15T06:19:13.185Z,60.60
2018-09-15T06:21:41.869Z,60.50
2018-09-15T06:24:10.587Z,60.50
2018-09-15T06:26:39.373Z,60.40
2018-09-15T06:29:08.486Z,60.60
2018-09-15T06:31:37.136Z,60.80
2018-09-15T06:34:05.725Z,60.80
2018-09-15T06:36:34.888Z,60.80
2018-09-15T06:39:04.527Z,60.80
2018-09-15T06:41:33.348Z,60.90
2018-09-15T06:44:02.787Z,60.80
2018-09-15T06:46:31.592Z,60.70
2018-09-15T06:49:00.287Z,60.50
2018-09-15T06:51:29.417Z,60.50
2018-09-15T06:53:59.244Z,60.60
2018-09-15T06:56:29.548Z,60.50
2018-09-15T06:58:58.079Z,60.30
2018-09-15T07:01:26.716Z,60.00
2018-09-15T07:03:55.266Z,59.90
2018-09-15T07:06:25.321Z,59.90
2018-09-15T07:08:55.103Z,60.00
2018-09-15T07:11:23.543Z,59.70
2018-09-15T07:13:53.865Z,59.50
2018-09-15T07:16:23.590Z,59.10
2018-09-15T07:18:53.669Z,59.00
2018-09-15T07:21:25.027Z,59.10
2018-09-15T07:26:29.135Z,59.00
2018-09-15T07:28:58.381Z,59.20
2018-09-15T07:31:28.298Z,59.20
2018-09-15T07:34:03.330Z,59.30
2018-09-15T07:39:17.843Z,59.90
2018-09-15T07:41:47.955Z,60.00
2018-09-15T07:44:32.802Z,60.00
2018-09-15T07:47:19.044Z,59.90
2018-09-15T07:52:35.914Z,59.20
2018-09-15T07:55:11.688Z,59.50
2018-09-15T07:57:42.044Z,59.40
2018-09-15T08:00:14.630Z,59.80
2018-09-15T08:02:48.804Z,59.00
2018-09-15T08:05:22.028Z,58.90
2018-09-15T08:07:52.269Z,58.70
2018-09-15T08:10:25.454Z,58.80
2018-09-15T08:13:06.617Z,58.70
2018-09-15T08:15:35.332Z,58.30
2018-09-15T08:18:04.334Z,57.60
2018-09-15T08:20:38.619Z,57.60
2018-09-15T08:23:25.799Z,57.50
2018-09-15T08:26:01.895Z,57.50
2018-09-15T08:28:31.499Z,56.80
2018-09-15T08:31:03.023Z,56.10
2018-09-15T08:33:38.719Z,55.80
2018-09-15T08:36:12.762Z,55.30
2018-09-15T08:38:47.694Z,54.70
2018-09-15T08:41:21.038Z,54.60
2018-09-15T08:44:02.979Z,54.30
2018-09-15T08:46:35.800Z,53.90
2018-09-15T08:49:10.021Z,53.70
2018-09-15T08:51:46.105Z,53.50
2018-09-15T08:54:16.102Z,53.70
2018-09-15T08:56:51.125Z,54.20
2018-09-15T08:59:22.221Z,54.20
2018-09-15T09:01:55.203Z,53.90
2018-09-15T09:07:25.056Z,53.30
2018-09-15T09:09:54.804Z,53.50
2018-09-15T09:12:31.847Z,53.80
2018-09-15T09:15:00.977Z,53.50
2018-09-15T09:22:53.733Z,51.10
2018-09-15T09:25:33.377Z,50.70
2018-09-15T09:28:13.824Z,50.10
2018-09-15T09:33:35.155Z,48.80
2018-09-15T09:36:07.293Z,48.10
2018-09-15T09:38:39.005Z,47.80
2018-09-15T09:41:19.272Z,47.80
2018-09-15T09:43:53.151Z,47.80
2018-09-15T09:48:59.857Z,47.30
2018-09-15T09:51:34.277Z,47.00
2018-09-15T09:54:18.081Z,47.30
2018-09-15T09:59:35.480Z,47.00
2018-09-15T10:02:10.281Z,47.10
2018-09-15T10:04:40.028Z,47.30
2018-09-15T10:07:16.637Z,47.30
2018-09-15T10:09:52.655Z,47.30
2018-09-15T10:15:10.665Z,47.50
2018-09-15T10:20:45.633Z,48.00
2018-09-15T10:29:30.387Z,46.60
2018-09-15T10:37:28.740Z,47.60
2018-09-15T10:40:10.828Z,47.10
2018-09-15T10:42:53.853Z,47.20
2018-09-15T10:48:25.049Z,47.10
2018-09-15T10:56:21.057Z,46.90
2018-09-15T10:58:54.745Z,46.50
2018-09-15T11:01:27.528Z,46.20
2018-09-15T11:06:39.589Z,46.60
2018-09-15T11:09:15.304Z,56.50
2018-09-15T11:14:57.120Z,62.30
2018-09-15T11:17:37.829Z,64.00
2018-09-15T11:20:09.511Z,64.20
2018-09-15T11:22:58.300Z,64.30
2018-09-15T11:25:46.749Z,64.50
2018-09-15T11:28:23.981Z,64.60
2018-09-15T11:30:55.745Z,64.90
2018-09-15T11:33:25.880Z,64.60
2018-09-15T11:35:57.633Z,64.20
2018-09-15T11:38:28.044Z,64.10
2018-09-15T11:40:58.529Z,64.00
2018-09-15T11:43:51.460Z,63.40
2018-09-15T11:46:20.311Z,63.10
2018-09-15T11:48:50.945Z,62.80
2018-09-15T11:54:39.283Z,61.40
2018-09-15T11:57:09.583Z,60.10
2018-09-15T11:59:39.517Z,58.80
2018-09-15T12:02:10.904Z,56.50
2018-09-15T12:04:43.848Z,56.20
2018-09-15T12:07:19.825Z,56.00
2018-09-15T12:10:08.247Z,55.20
2018-09-15T12:12:43.613Z,54.70
2018-09-15T12:15:21.046Z,53.50
2018-09-15T12:17:51.709Z,52.60
2018-09-15T12:20:24.044Z,51.30
2018-09-15T12:22:56.572Z,50.60
2018-09-15T12:25:38.581Z,49.90
2018-09-15T12:28:09.430Z,50.70
2018-09-15T12:33:27.655Z,50.50
2018-09-15T12:35:56.929Z,50.40
2018-09-15T12:38:27.703Z,50.00
2018-09-15T12:40:57.572Z,48.20
2018-09-15T12:43:26.965Z,47.80
2018-09-15T12:46:02.640Z,47.10
2018-09-15T12:51:12.730Z,47.20
2018-09-15T12:53:57.043Z,45.90
2018-09-15T12:59:31.251Z,46.20
2018-09-15T13:05:11.208Z,46.70
2018-09-15T13:10:37.985Z,45.70
2018-09-15T13:16:03.795Z,45.00
2018-09-15T13:27:12.431Z,42.80
2018-09-15T13:29:59.092Z,41.90
2018-09-15T13:32:39.865Z,42.40
2018-09-15T14:19:48.224Z,40.90
2018-09-15T14:22:31.027Z,40.00
2018-09-15T14:25:13.973Z,40.00
2018-09-15T14:27:47.115Z,39.20
2018-09-15T14:32:59.658Z,39.30
2018-09-15T14:35:38.083Z,39.90
2018-09-15T14:38:11.091Z,40.20
2018-09-15T14:43:27.380Z,40.80
2018-09-15T14:48:39.335Z,41.10
2018-09-15T14:51:20.983Z,41.10
2018-09-15T14:54:02.871Z,41.10
2018-09-15T14:56:33.272Z,40.40
2018-09-15T14:59:02.534Z,40.10
2018-09-15T15:01:40.930Z,39.60
2018-09-15T15:04:32.312Z,39.40
2018-09-15T15:10:12.343Z,39.20
2018-09-15T15:12:43.960Z,39.60
2018-09-15T15:15:16.889Z,39.90
2018-09-15T15:23:25.697Z,39.10
2018-09-15T15:26:10.179Z,39.20
2018-09-15T15:31:24.365Z,39.60
2018-09-15T15:37:08.379Z,40.00
2018-09-15T15:39:39.007Z,40.30
2018-09-15T15:42:11.612Z,41.10
2018-09-15T15:45:04.177Z,41.30
2018-09-15T15:47:42.894Z,41.60
2018-09-15T15:56:01.887Z,41.80
2018-09-15T16:01:32.414Z,42.50
2018-09-15T16:04:39.735Z,43.10
2018-09-15T16:07:15.068Z,42.60
2018-09-15T16:09:54.313Z,42.60
2018-09-15T16:18:04.807Z,42.60
2018-09-15T16:20:49.419Z,42.70
2018-09-15T16:26:21.872Z,42.40
2018-09-15T16:31:47.437Z,43.10
2018-09-15T16:34:23.283Z,42.90
2018-09-15T16:37:08.802Z,42.80
2018-09-15T16:42:45.083Z,42.80
2018-09-15T16:45:20.165Z,43.20
2018-09-15T16:50:32.435Z,44.10
2018-09-15T16:56:01.288Z,43.80
2018-09-15T17:01:29.223Z,43.80
2018-09-15T17:04:13.412Z,44.30
2018-09-15T17:06:47.019Z,44.90
2018-09-15T17:09:18.612Z,45.00
2018-09-15T17:11:55.295Z,45.20
2018-09-15T17:14:30.896Z,45.30
2018-09-15T17:20:00.957Z,45.70
2018-09-15T17:22:41.653Z,46.20
2018-09-15T17:25:18.165Z,46.30
2018-09-15T17:32:13.020Z,46.30
2018-09-15T17:34:56.280Z,46.40
2018-09-15T17:40:19.475Z,46.30
2018-09-15T17:46:49.281Z,46.60
2018-09-15T18:00:50.679Z,47.50
2018-09-15T18:03:27.089Z,47.60
2018-09-15T18:06:03.593Z,47.80
2018-09-15T18:11:26.881Z,48.10
2018-09-15T18:14:05.850Z,48.20
2018-09-15T18:16:52.102Z,48.40
2018-09-15T18:19:27.648Z,48.60
2018-09-15T18:22:05.543Z,48.80
2018-09-15T18:27:43.514Z,49.10
2018-09-15T18:30:27.146Z,49.10
2018-09-15T18:35:46.668Z,49.40
2018-09-15T18:52:12.151Z,49.50
2018-09-15T19:03:24.276Z,44.50
2018-09-15T19:06:08.816Z,44.50
2018-09-15T19:08:39.735Z,45.30
2018-09-15T19:11:10.211Z,44.90
2018-09-15T19:13:50.123Z,45.10
2018-09-15T19:16:20.075Z,45.50
2018-09-15T19:18:48.884Z,46.00
2018-09-15T19:21:19.444Z,46.30
2018-09-15T19:23:48.973Z,46.60
2018-09-15T19:26:17.573Z,47.00
2018-09-15T19:28:46.272Z,47.50
2018-09-15T19:31:16.118Z,48.10
2018-09-15T19:33:44.483Z,48.50
2018-09-15T19:36:18.234Z,48.80
2018-09-15T19:39:00.842Z,49.10
2018-09-15T19:41:38.342Z,49.30
2018-09-15T23:14:23.686Z,56.10
2018-09-15T23:17:04.232Z,56.30
2018-09-15T23:22:11.457Z,56.70
2018-09-15T23:27:25.314Z,57.10
2018-09-15T23:29:56.740Z,57.10
2018-09-15T23:32:30.342Z,57.10
2018-09-15T23:35:02.117Z,57.10
2018-09-15T23:37:33.418Z,57.10
2018-09-15T23:40:07.353Z,57.20
2018-09-15T23:42:40.340Z,57.30
2018-09-15T23:48:41.716Z,57.10
